PortugalFixed distance
Ultra Trail do Marão UTM 60k
1–2 Apr2023
Distance
60km
Finishers
11394 men19 women
Winning time
6:41:29h
Median pace
5.42km/h
Pace distribution
113 finishers · 4.09–8.97 km/h · mean 5.65
Every finisher ran the same 60 km course, so these paces are directly comparable.
Histogram of finisher pace. 113 finishers ranged from 4.09 to 8.97 kilometres per hour, with a mean of 5.65 and a median of 5.42. The busiest band is 5.0 to 5.5 kilometres per hour, with 32 finishers.
Results
Ranks 51–100 of 113
| Rank | Runner | Time | Pace | Cat. | Placing |
|---|---|---|---|---|---|
| 51 | Fátima Trail Team | 10:53:46h | 5.51 | M35 | 47th M · 10th M35 |
| 52 | Dragon Club | 10:53:46h | 5.51 | M45 | 47th M · 10th M45 |
| 53 | Lobos do Monte Run | 10:55:35h | 5.49 | M45 | 49th M · 11th M45 |
| 54 | 10:56:03h | 5.49 | W40 | 5th F · 1st W40 | |
| 55 | Club de Muntanya Ermas... | 10:56:05h | 5.49 | W35 | 6th F · 3rd W35 |
| 56 | Adcsantaisabeltrailrun... | 10:59:13h | 5.46 | M35 | 50th M · 11th M35 |
| 57 | TRM | 11:04:31h | 5.42 | M55 | 51st M · 2nd M55 |
| 58 | Linces do Marão | 11:06:48h | 5.40 | M50 | 52nd M · 7th M50 |
| 59 | O QUE Queremos É Monte | 11:10:41h | 5.37 | M55 | 53rd M · 3rd M55 |
| 60 | Clube Efacec | 11:11:45h | 5.36 | M45 | 54th M · 12th M45 |
| 61 | Clube Efacec | 11:11:50h | 5.36 | W40 | 7th F · 2nd W40 |
| 62 | Diabetes SEM Stress | 11:15:15h | 5.33 | M40 | 55th M · 15th M40 |
| 63 | 11:15:51h | 5.33 | M45 | 56th M · 13th M45 | |
| 64 | Clube Efacec /Bis3 IMO | 11:16:09h | 5.32 | W45 | 8th F · 1st W45 |
| 65 | Águias da Freita | 11:20:47h | 5.29 | M23 | 57th M · 8th M23 |
| 66 | Águias da Freita | 11:20:47h | 5.29 | M40 | 57th M · 16th M40 |
| 67 | Não fazemos nem mais u... | 11:21:59h | 5.28 | M45 | 59th M · 14th M45 |
| 68 | Puxa POR TI | 11:28:40h | 5.23 | W23 | 9th F · 1st W23 |
| 69 | Prazer EM Correr - Ilh... | 11:33:52h | 5.19 | M50 | 60th M · 8th M50 |
| 70 | Grupeta Running Team | 11:37:00h | 5.17 | M45 | 61st M · 15th M45 |
| 71 | Pcrunners | 11:37:00h | 5.17 | M45 | 61st M · 15th M45 |
| 72 | TRM | 11:39:10h | 5.15 | M55 | 63rd M · 4th M55 |
| 73 | Vale Correr | 11:40:16h | 5.14 | W23 | 10th F · 2nd W23 |
| 74 | Dive Into the Mountains | 11:43:49h | 5.12 | M40 | 64th M · 17th M40 |
| 75 | Dive Into the Mountains | 11:43:50h | 5.12 | M45 | 65th M · 17th M45 |
| 76 | Team Lantemil | 11:48:36h | 5.08 | M40 | 66th M · 18th M40 |
| 77 | CDM Vértice | 11:48:55h | 5.08 | M35 | 67th M · 12th M35 |
| 78 | 11:51:18h | 5.06 | M40 | 68th M · 19th M40 | |
| 79 | Adcsantaisabeltrailrun... | 11:51:42h | 5.06 | M50 | 69th M · 9th M50 |
| 80 | Grupo Desportivo Leões... | 11:51:44h | 5.06 | M60 | 70th M · 1st M60 |
| 81 | Thedarkturtle | 11:51:51h | 5.06 | M35 | 71st M · 13th M35 |
| 82 | Trilho Perdido Eventos... | 11:51:52h | 5.06 | W40 | 11th F · 3rd W40 |
| 83 | Strendure Running Team | 11:53:07h | 5.05 | W40 | 12th F · 4th W40 |
| 84 | Strendure Running Team | 11:56:14h | 5.03 | M35 | 72nd M · 14th M35 |
| 85 | OCS - Arrábida Trail Team | 12:00:43h | 5.00 | M23 | 73rd M · 9th M23 |
| 86 | Coutadas Trail Team | 12:13:51h | 4.91 | W40 | 13th F · 5th W40 |
| 87 | Coutadas Trail Team | 12:13:52h | 4.91 | M45 | 74th M · 18th M45 |
| 88 | Coutadas Trail Team | 12:13:54h | 4.91 | M45 | 75th M · 19th M45 |
| 89 | OS Finos | 12:28:34h | 4.81 | M50 | 76th M · 10th M50 |
| 90 | 12:32:25h | 4.79 | M40 | 77th M · 20th M40 | |
| 91 | Running Esmoriz | 12:37:20h | 4.75 | M40 | 78th M · 21st M40 |
| 92 | Pcit - Prazer EM Corre... | 12:37:39h | 4.75 | M45 | 79th M · 20th M45 |
| 93 | Trilhos da Baga/K Run ... | 12:39:14h | 4.74 | M55 | 80th M · 5th M55 |
| 94 | Clube Millenniumbcp | 12:47:58h | 4.69 | M55 | 81st M · 6th M55 |
| 95 | 12:50:37h | 4.67 | M45 | 82nd M · 21st M45 | |
| 96 | 12:50:38h | 4.67 | M45 | 83rd M · 22nd M45 | |
| 97 | GAB Runners | 12:51:07h | 4.67 | M40 | 84th M · 22nd M40 |
| 98 | TRM | 12:53:15h | 4.66 | M45 | 85th M · 23rd M45 |
| 99 | CDM Vértice | 12:53:49h | 4.65 | M45 | 86th M · 24th M45 |
| 100 | 12:57:13h | 4.63 | W23 | 14th F · 3rd W23 |
- 51Fátima Trail Team47th M · 10th M35Time10:53:46hPace5.51Cat.M35
- 52Dragon Club47th M · 10th M45Time10:53:46hPace5.51Cat.M45
- 53Lobos do Monte Run49th M · 11th M45Time10:55:35hPace5.49Cat.M45
- 545th F · 1st W40Time10:56:03hPace5.49Cat.W40
- 55Club de Muntanya Ermas...6th F · 3rd W35Time10:56:05hPace5.49Cat.W35
- 56Adcsantaisabeltrailrun...50th M · 11th M35Time10:59:13hPace5.46Cat.M35
- 57TRM51st M · 2nd M55Time11:04:31hPace5.42Cat.M55
- 58Linces do Marão52nd M · 7th M50Time11:06:48hPace5.40Cat.M50
- 59O QUE Queremos É Monte53rd M · 3rd M55Time11:10:41hPace5.37Cat.M55
- 60Clube Efacec54th M · 12th M45Time11:11:45hPace5.36Cat.M45
- 61Clube Efacec7th F · 2nd W40Time11:11:50hPace5.36Cat.W40
- 62Diabetes SEM Stress55th M · 15th M40Time11:15:15hPace5.33Cat.M40
- 6356th M · 13th M45Time11:15:51hPace5.33Cat.M45
- 64Clube Efacec /Bis3 IMO8th F · 1st W45Time11:16:09hPace5.32Cat.W45
- 65Águias da Freita57th M · 8th M23Time11:20:47hPace5.29Cat.M23
- 66Águias da Freita57th M · 16th M40Time11:20:47hPace5.29Cat.M40
- 67Não fazemos nem mais u...59th M · 14th M45Time11:21:59hPace5.28Cat.M45
- 68Puxa POR TI9th F · 1st W23Time11:28:40hPace5.23Cat.W23
- 69Prazer EM Correr - Ilh...60th M · 8th M50Time11:33:52hPace5.19Cat.M50
- 70Grupeta Running Team61st M · 15th M45Time11:37:00hPace5.17Cat.M45
- 71Pcrunners61st M · 15th M45Time11:37:00hPace5.17Cat.M45
- 72TRM63rd M · 4th M55Time11:39:10hPace5.15Cat.M55
- 73Vale Correr10th F · 2nd W23Time11:40:16hPace5.14Cat.W23
- 74Dive Into the Mountains64th M · 17th M40Time11:43:49hPace5.12Cat.M40
- 75Dive Into the Mountains65th M · 17th M45Time11:43:50hPace5.12Cat.M45
- 76Team Lantemil66th M · 18th M40Time11:48:36hPace5.08Cat.M40
- 77CDM Vértice67th M · 12th M35Time11:48:55hPace5.08Cat.M35
- 7868th M · 19th M40Time11:51:18hPace5.06Cat.M40
- 79Adcsantaisabeltrailrun...69th M · 9th M50Time11:51:42hPace5.06Cat.M50
- 80Grupo Desportivo Leões...70th M · 1st M60Time11:51:44hPace5.06Cat.M60
- 81Thedarkturtle71st M · 13th M35Time11:51:51hPace5.06Cat.M35
- 82Trilho Perdido Eventos...11th F · 3rd W40Time11:51:52hPace5.06Cat.W40
- 83Strendure Running Team12th F · 4th W40Time11:53:07hPace5.05Cat.W40
- 84Strendure Running Team72nd M · 14th M35Time11:56:14hPace5.03Cat.M35
- 85OCS - Arrábida Trail Team73rd M · 9th M23Time12:00:43hPace5.00Cat.M23
- 86Coutadas Trail Team13th F · 5th W40Time12:13:51hPace4.91Cat.W40
- 87Coutadas Trail Team74th M · 18th M45Time12:13:52hPace4.91Cat.M45
- 88Coutadas Trail Team75th M · 19th M45Time12:13:54hPace4.91Cat.M45
- 89OS Finos76th M · 10th M50Time12:28:34hPace4.81Cat.M50
- 9077th M · 20th M40Time12:32:25hPace4.79Cat.M40
- 91Running Esmoriz78th M · 21st M40Time12:37:20hPace4.75Cat.M40
- 92Pcit - Prazer EM Corre...79th M · 20th M45Time12:37:39hPace4.75Cat.M45
- 93Trilhos da Baga/K Run ...80th M · 5th M55Time12:39:14hPace4.74Cat.M55
- 94Clube Millenniumbcp81st M · 6th M55Time12:47:58hPace4.69Cat.M55
- 9582nd M · 21st M45Time12:50:37hPace4.67Cat.M45
- 9683rd M · 22nd M45Time12:50:38hPace4.67Cat.M45
- 97GAB Runners84th M · 22nd M40Time12:51:07hPace4.67Cat.M40
- 98TRM85th M · 23rd M45Time12:53:15hPace4.66Cat.M45
- 99CDM Vértice86th M · 24th M45Time12:53:49hPace4.65Cat.M45
- 10014th F · 3rd W23Time12:57:13hPace4.63Cat.W23
Showing ranks 51–100 of 113